createdAt,value
2022-08-09T00:00:46.333Z,107
2022-08-09T00:01:52.954Z,103
2022-08-09T00:06:17.019Z,102
2022-08-09T00:06:35.425Z,102
2022-08-09T00:07:44.373Z,99
2022-08-09T00:08:46.070Z,100
2022-08-09T00:09:51.722Z,94
2022-08-09T00:10:58.158Z,97
2022-08-09T00:12:03.307Z,96
2022-08-09T00:13:17.346Z,101
2022-08-09T00:14:22.139Z,91
2022-08-09T00:15:26.877Z,97
2022-08-09T00:16:38.602Z,100
2022-08-09T00:18:06.246Z,94
2022-08-09T00:20:49.935Z,93
2022-08-09T00:22:13.748Z,91
2022-08-09T00:25:10.132Z,93
2022-08-09T00:26:29.475Z,91
2022-08-09T00:27:42.941Z,90
2022-08-09T00:28:42.252Z,87
2022-08-09T00:30:10.507Z,87
2022-08-09T00:31:09.399Z,88
2022-08-09T00:32:46.333Z,90
2022-08-09T00:35:43.172Z,86
2022-08-09T00:36:45.390Z,91
2022-08-09T00:40:02.041Z,89
2022-08-09T00:40:30.082Z,94
2022-08-09T00:44:08.344Z,97
2022-08-09T00:44:08.974Z,94
2022-08-09T00:44:09.430Z,96
2022-08-09T00:45:14.813Z,94
2022-08-09T00:46:28.591Z,98
2022-08-09T00:47:33.242Z,100
2022-08-09T00:48:38.760Z,97
2022-08-09T00:52:58.315Z,95
2022-08-09T00:54:02.741Z,99
2022-08-09T00:55:07.189Z,93
2022-08-09T00:56:11.536Z,92
2022-08-09T00:57:34.126Z,96
2022-08-09T01:00:24.353Z,100
2022-08-09T01:01:32.208Z,98
2022-08-09T01:03:23.825Z,98
2022-08-09T01:04:33.117Z,101
2022-08-09T01:05:50.886Z,102
2022-08-09T01:07:12.361Z,109
2022-08-09T01:10:14.182Z,104
2022-08-09T01:11:27.007Z,100
2022-08-09T01:12:41.977Z,99
2022-08-09T01:14:59.293Z,108
2022-08-09T01:16:13.725Z,99
2022-08-09T01:19:01.737Z,98
2022-08-09T01:20:01.986Z,99
2022-08-09T01:24:44.144Z,97
2022-08-09T01:25:58.393Z,97
2022-08-09T01:27:20.608Z,99
2022-08-09T01:30:28.311Z,99
2022-08-09T01:32:30.603Z,97
2022-08-09T01:33:07.329Z,101
2022-08-09T01:34:29.096Z,103
2022-08-09T01:35:38.180Z,110
2022-08-09T01:38:36.155Z,104
2022-08-09T01:40:01.358Z,105
2022-08-09T01:41:06.251Z,100
2022-08-09T01:42:26.969Z,100
2022-08-09T01:43:52.630Z,102
2022-08-09T01:45:03.203Z,108
2022-08-09T01:46:07.888Z,102
2022-08-09T01:47:12.177Z,102
2022-08-09T01:48:16.558Z,103
2022-08-09T01:49:21.085Z,104
2022-08-09T01:50:36.808Z,102
2022-08-09T01:51:34.865Z,105
2022-08-09T01:52:41.347Z,107
2022-08-09T01:53:49.299Z,114
2022-08-09T01:55:03.252Z,110
2022-08-09T01:56:14.057Z,110
2022-08-09T01:57:39.983Z,112
2022-08-09T02:00:35.338Z,117
2022-08-09T02:01:30.455Z,112
2022-08-09T02:02:32.131Z,116
2022-08-09T02:05:21.618Z,119
2022-08-09T02:06:25.839Z,116
2022-08-09T02:08:36.437Z,119
2022-08-09T02:08:59.636Z,119
2022-08-09T02:10:03.927Z,118
2022-08-09T02:11:16.914Z,116
2022-08-09T02:12:10.156Z,118
2022-08-09T02:13:40.110Z,115
2022-08-09T02:14:42.011Z,117
2022-08-09T02:15:49.141Z,119
2022-08-09T02:17:14.871Z,119
2022-08-09T02:18:10.975Z,115
2022-08-09T02:19:16.916Z,118
2022-08-09T02:20:25.145Z,118
2022-08-09T02:23:02.020Z,117
2022-08-09T02:24:10.186Z,121
2022-08-09T02:25:15.163Z,114
2022-08-09T02:26:24.771Z,115
2022-08-09T02:27:27.402Z,117
2022-08-09T02:30:09.044Z,107
2022-08-09T02:31:15.336Z,115
2022-08-09T02:32:19.775Z,111
2022-08-09T02:33:37.633Z,108
2022-08-09T02:34:41.185Z,108
2022-08-09T02:36:36.772Z,107
2022-08-09T02:38:01.911Z,109
2022-08-09T02:39:14.222Z,109
2022-08-09T02:42:02.903Z,114
2022-08-09T02:43:22.673Z,109
2022-08-09T02:44:47.444Z,113
2022-08-09T02:45:51.903Z,116
2022-08-09T02:46:56.699Z,116
2022-08-09T02:48:01.107Z,121
2022-08-09T02:49:05.856Z,124
2022-08-09T02:50:10.235Z,124
2022-08-09T02:51:14.615Z,124
2022-08-09T02:52:19.072Z,128
2022-08-09T02:53:25.910Z,129
2022-08-09T02:54:27.970Z,134
2022-08-09T02:55:33.616Z,130
2022-08-09T02:56:36.471Z,130
2022-08-09T02:57:59.853Z,130
2022-08-09T02:59:06.535Z,131
2022-08-09T03:00:28.399Z,128
2022-08-09T03:01:42.976Z,123
2022-08-09T03:02:36.890Z,123
2022-08-09T03:04:13.910Z,121
2022-08-09T03:05:11.347Z,120
2022-08-09T03:06:15.503Z,126
2022-08-09T03:07:19.715Z,128
2022-08-09T03:08:23.795Z,127
2022-08-09T03:09:27.963Z,119
2022-08-09T03:10:32.128Z,116
2022-08-09T03:12:05.137Z,118
2022-08-09T03:14:31.060Z,118
2022-08-09T03:15:40.782Z,119
2022-08-09T03:16:45.435Z,127
2022-08-09T03:17:45.283Z,127
2022-08-09T03:18:50.572Z,137
2022-08-09T03:19:59.743Z,129
2022-08-09T03:21:08.541Z,137
2022-08-09T03:22:25.286Z,125
2022-08-09T03:23:27.120Z,123
2022-08-09T03:24:52.518Z,112
2022-08-09T03:26:03.339Z,107
2022-08-09T03:27:03.964Z,102
2022-08-09T03:28:18.555Z,98
2022-08-09T03:30:04.442Z,97
2022-08-09T03:31:21.479Z,93
2022-08-09T03:32:17.600Z,88
2022-08-09T03:33:21.999Z,89
2022-08-09T03:34:41.811Z,87
2022-08-09T03:36:14.267Z,80
2022-08-09T03:36:58.374Z,82
2022-08-09T03:38:30.473Z,78
2022-08-09T03:39:38.660Z,73
2022-08-09T03:40:53.260Z,69
2022-08-09T03:42:05.879Z,72
2022-08-09T03:43:27.145Z,66
2022-08-09T03:45:11.408Z,71
2022-08-09T03:46:20.450Z,67
2022-08-09T03:47:21.990Z,68
2022-08-09T03:48:29.361Z,70
2022-08-09T03:49:35.510Z,64
2022-08-09T03:50:44.517Z,62
2022-08-09T03:52:00.008Z,67
2022-08-09T03:53:00.141Z,70
2022-08-09T03:54:04.683Z,67
2022-08-09T03:55:35.843Z,67
2022-08-09T03:56:50.514Z,70
2022-08-09T03:58:03.578Z,72
2022-08-09T04:00:59.800Z,75
2022-08-09T04:02:14.652Z,80
2022-08-09T04:03:19.773Z,80
2022-08-09T04:04:24.543Z,82
2022-08-09T04:05:28.556Z,81
2022-08-09T04:06:49.016Z,77
2022-08-09T04:07:57.108Z,78
2022-08-09T04:08:56.756Z,77
2022-08-09T04:10:07.215Z,74
2022-08-09T04:11:11.488Z,77
2022-08-09T04:14:36.837Z,76
2022-08-09T04:15:29.740Z,80
2022-08-09T04:16:24.678Z,88
2022-08-09T04:17:29.470Z,114
2022-08-09T04:18:33.341Z,124
2022-08-09T04:19:43.126Z,135
2022-08-09T04:20:42.323Z,133
2022-08-09T04:21:49.263Z,137
2022-08-09T04:23:16.995Z,119
2022-08-09T04:24:33.944Z,120
2022-08-09T04:25:38.097Z,107
2022-08-09T04:26:52.847Z,105
2022-08-09T04:29:48.641Z,96
2022-08-09T04:31:05.969Z,84
2022-08-09T04:32:07.438Z,91
2022-08-09T04:33:13.320Z,84
2022-08-09T04:34:18.931Z,92
2022-08-09T04:35:32.605Z,100
2022-08-09T04:36:50.196Z,105
2022-08-09T04:38:03.469Z,117
2022-08-09T04:39:06.399Z,131
2022-08-09T04:40:36.373Z,135
2022-08-09T04:41:55.715Z,139
2022-08-09T04:43:07.995Z,143
2022-08-09T04:44:12.212Z,150
2022-08-09T04:45:20.481Z,160
2022-08-09T04:46:38.152Z,165
2022-08-09T04:48:33.129Z,172
2022-08-09T04:49:41.046Z,170
2022-08-09T04:50:39.779Z,175
2022-08-09T04:51:44.094Z,176
2022-08-09T04:52:48.399Z,186
2022-08-09T04:54:03.032Z,183
2022-08-09T04:55:10.277Z,178
2022-08-09T04:56:39.951Z,180
2022-08-09T04:57:54.542Z,181
2022-08-09T04:59:54.757Z,188
2022-08-09T05:01:16.181Z,189
2022-08-09T05:04:09.484Z,187
2022-08-09T05:05:31.574Z,190
2022-08-09T05:06:50.506Z,191
2022-08-09T05:09:45.321Z,200
2022-08-09T05:10:51.592Z,195
2022-08-09T05:14:01.736Z,203
2022-08-09T05:15:11.337Z,204
2022-08-09T05:16:11.717Z,208
2022-08-09T05:18:37.381Z,205
2022-08-09T05:18:40.116Z,219
2022-08-09T05:19:25.860Z,213
2022-08-09T05:20:30.408Z,213
2022-08-09T05:21:46.905Z,214
2022-08-09T05:23:51.267Z,214
2022-08-09T05:24:03.843Z,206
2022-08-09T05:25:32.461Z,200
2022-08-09T05:26:47.877Z,202
2022-08-09T05:28:19.490Z,199
2022-08-09T05:29:31.125Z,198
2022-08-09T05:30:31.280Z,194
2022-08-09T05:31:44.951Z,196
2022-08-09T05:33:00.383Z,199
2022-08-09T05:35:49.964Z,192
2022-08-09T05:36:53.912Z,190
2022-08-09T05:39:48.612Z,200
2022-08-09T05:40:53.404Z,198
2022-08-09T05:42:21.162Z,201
2022-08-09T05:43:40.708Z,197
2022-08-09T05:45:07.599Z,202
2022-08-09T05:46:12.059Z,199
2022-08-09T05:47:16.367Z,204
2022-08-09T05:50:24.621Z,196
2022-08-09T05:51:29.847Z,186
2022-08-09T05:52:09.284Z,181
2022-08-09T05:53:30.988Z,174
2022-08-09T05:56:04.782Z,169
2022-08-09T05:57:17.426Z,170
2022-08-09T05:58:19.670Z,167
2022-08-09T05:59:29.126Z,165
2022-08-09T06:00:45.559Z,160
2022-08-09T06:02:10.288Z,150
2022-08-09T06:03:19.794Z,145
2022-08-09T06:04:44.496Z,141
2022-08-09T06:05:50.773Z,136
2022-08-09T06:07:00.311Z,137
2022-08-09T06:08:19.235Z,135
2022-08-09T06:09:41.020Z,131
2022-08-09T06:10:36.802Z,131
2022-08-09T06:11:56.730Z,123
2022-08-09T06:14:36.012Z,106
2022-08-09T06:15:40.062Z,93
2022-08-09T06:16:44.204Z,89
2022-08-09T06:17:48.704Z,86
2022-08-09T06:18:53.289Z,86
2022-08-09T06:20:07.892Z,76
2022-08-09T06:21:11.983Z,68
2022-08-09T06:22:28.870Z,58
2022-08-09T06:23:55.953Z,55
2022-08-09T06:24:44.748Z,71
2022-08-09T06:25:59.167Z,38
2022-08-09T06:27:03.582Z,34
2022-08-09T06:28:08.011Z,31
2022-08-09T06:31:02.827Z,32
2022-08-09T06:32:53.825Z,27
2022-08-09T06:33:40.341Z,36
2022-08-09T06:34:31.547Z,38
2022-08-09T06:35:56.733Z,45
2022-08-09T06:36:57.562Z,46
2022-08-09T06:39:39.709Z,34
2022-08-09T06:40:39.346Z,25
2022-08-09T06:41:58.914Z,25
2022-08-09T06:43:04.327Z,36
2022-08-09T06:44:24.127Z,37
2022-08-09T06:46:05.784Z,39
2022-08-09T06:46:39.377Z,35
2022-08-09T06:47:39.652Z,38
2022-08-09T06:48:42.553Z,35
2022-08-09T06:50:12.453Z,28
2022-08-09T06:50:50.453Z,40
2022-08-09T06:51:54.599Z,27
2022-08-09T06:52:59.083Z,35
2022-08-09T06:54:20.322Z,35
2022-08-09T06:55:34.598Z,40
2022-08-09T06:56:38.787Z,32
2022-08-09T06:58:01.295Z,43
2022-08-09T07:00:48.002Z,44
2022-08-09T07:00:48.393Z,36
2022-08-09T07:01:18.041Z,33
2022-08-09T07:02:29.400Z,30
2022-08-09T07:03:34.065Z,36
2022-08-09T07:04:38.634Z,32
2022-08-09T07:05:53.990Z,31
2022-08-09T07:06:53.745Z,36
2022-08-09T07:08:03.003Z,38
2022-08-09T07:09:07.423Z,31
2022-08-09T07:10:19.703Z,47
2022-08-09T07:11:23.678Z,46
2022-08-09T07:12:37.956Z,42
2022-08-09T07:13:29.570Z,32
2022-08-09T07:14:33.391Z,32
2022-08-09T07:15:53.701Z,44
2022-08-09T07:16:48.970Z,33
2022-08-09T07:17:52.542Z,31
2022-08-09T07:18:51.723Z,31
2022-08-09T07:19:57.249Z,30
2022-08-09T07:21:01.955Z,33
2022-08-09T07:22:06.227Z,31
2022-08-09T07:23:18.420Z,30
2022-08-09T07:24:15.359Z,38
2022-08-09T07:25:23.486Z,31
2022-08-09T07:26:32.195Z,34
2022-08-09T07:27:42.326Z,28
2022-08-09T07:29:01.435Z,34
2022-08-09T07:29:49.735Z,42
2022-08-09T07:30:53.854Z,29
2022-08-09T07:31:58.322Z,31
2022-08-09T07:33:02.931Z,33
2022-08-09T07:34:07.314Z,25
2022-08-09T07:35:16.572Z,27
2022-08-09T07:36:20.839Z,39
2022-08-09T07:37:29.225Z,31
2022-08-09T07:38:33.727Z,31
2022-08-09T07:39:40.571Z,30
2022-08-09T07:41:46.675Z,33
2022-08-09T07:42:51.151Z,35
2022-08-09T07:43:55.793Z,38
2022-08-09T07:45:02.694Z,37
2022-08-09T07:46:08.682Z,27
2022-08-09T07:47:15.738Z,28
2022-08-09T07:48:22.361Z,28
2022-08-09T07:49:22.273Z,31
2022-08-09T07:50:32.861Z,29
2022-08-09T07:52:04.231Z,41
2022-08-09T07:52:37.407Z,31
2022-08-09T07:54:06.132Z,34
2022-08-09T07:54:51.511Z,40
2022-08-09T07:56:03.004Z,45
2022-08-09T07:56:55.011Z,37
2022-08-09T07:57:59.427Z,45
2022-08-09T07:59:06.354Z,45
2022-08-09T08:00:08.853Z,47
2022-08-09T08:01:17.176Z,55
2022-08-09T08:02:21.584Z,43
2022-08-09T08:03:26.729Z,29
2022-08-09T08:04:31.970Z,25
2022-08-09T08:05:39.403Z,29
2022-08-09T08:06:45.598Z,43
2022-08-09T08:08:06.946Z,49
2022-08-09T08:09:02.965Z,40
2022-08-09T08:11:03.292Z,46
2022-08-09T08:12:11.660Z,45
2022-08-09T08:13:12.930Z,37
2022-08-09T08:14:17.306Z,26
2022-08-09T08:15:23.326Z,25
2022-08-09T08:16:30.162Z,37
2022-08-09T08:17:35.662Z,33
2022-08-09T08:18:34.993Z,28
2022-08-09T08:19:45.275Z,29
2022-08-09T08:20:49.842Z,27
2022-08-09T08:21:59.303Z,58
2022-08-09T08:23:07.036Z,48
2022-08-09T08:24:11.623Z,54
2022-08-09T08:25:22.803Z,50
2022-08-09T08:26:42.270Z,49
2022-08-09T08:27:40.276Z,38
2022-08-09T08:28:38.763Z,52
2022-08-09T08:29:53.327Z,45
2022-08-09T08:30:57.776Z,42
2022-08-09T08:32:04.622Z,56
2022-08-09T08:33:22.929Z,38
2022-08-09T08:34:25.195Z,28
2022-08-09T08:35:37.214Z,37
2022-08-09T08:36:47.035Z,32
2022-08-09T08:38:04.967Z,32
2022-08-09T08:39:12.457Z,33
2022-08-09T08:40:19.907Z,31
2022-08-09T08:41:23.983Z,38
2022-08-09T08:42:31.933Z,37
2022-08-09T08:43:32.794Z,36
2022-08-09T08:44:39.495Z,34
2022-08-09T08:45:51.790Z,45
2022-08-09T08:47:03.447Z,53
2022-08-09T08:48:05.397Z,52
2022-08-09T08:49:12.704Z,50
2022-08-09T08:50:26.075Z,43
2022-08-09T08:51:40.290Z,47
2022-08-09T08:52:59.806Z,54
2022-08-09T08:54:20.376Z,36
2022-08-09T08:55:23.310Z,64
2022-08-09T08:56:28.395Z,63
2022-08-09T08:57:34.639Z,54
2022-08-09T08:58:38.514Z,41
2022-08-09T08:59:53.759Z,46
2022-08-09T09:01:03.673Z,43
2022-08-09T09:02:12.207Z,28
2022-08-09T09:03:33.412Z,40
2022-08-09T09:04:41.424Z,34
2022-08-09T09:05:59.368Z,40
2022-08-09T09:06:59.335Z,32
2022-08-09T09:08:04.294Z,45
2022-08-09T09:09:20.956Z,50
2022-08-09T09:10:38.102Z,54
2022-08-09T09:11:49.601Z,54
2022-08-09T09:12:55.454Z,65
2022-08-09T09:13:59.479Z,72
2022-08-09T09:15:28.091Z,71
2022-08-09T09:16:35.905Z,75
2022-08-09T09:17:48.805Z,71
2022-08-09T09:18:56.198Z,78
2022-08-09T09:19:56.267Z,92
2022-08-09T09:21:11.043Z,89
2022-08-09T09:22:26.966Z,96
2022-08-09T09:23:37.958Z,103
2022-08-09T09:26:18.995Z,93
2022-08-09T09:28:04.683Z,97
2022-08-09T09:28:39.451Z,95
2022-08-09T09:29:57.917Z,85
2022-08-09T09:30:39.870Z,117
2022-08-09T09:32:01.579Z,111
2022-08-09T09:33:14.005Z,83
2022-08-09T09:34:25.474Z,92
2022-08-09T09:35:39.819Z,99
2022-08-09T09:36:54.741Z,83
2022-08-09T09:37:58.816Z,104
2022-08-09T09:39:04.013Z,98
2022-08-09T09:40:11.685Z,89
2022-08-09T09:41:15.137Z,80
2022-08-09T09:42:24.703Z,85
2022-08-09T09:43:29.595Z,66
2022-08-09T09:44:34.048Z,78
2022-08-09T09:45:56.677Z,92
2022-08-09T09:46:52.813Z,82
2022-08-09T09:47:58.871Z,82
2022-08-09T09:49:01.671Z,78
2022-08-09T09:50:13.518Z,82
2022-08-09T09:51:18.779Z,72
2022-08-09T09:52:35.610Z,82
2022-08-09T09:53:25.153Z,83
2022-08-09T09:54:26.330Z,82
2022-08-09T09:55:57.937Z,71
2022-08-09T09:58:02.127Z,64
2022-08-09T09:58:33.356Z,58
2022-08-09T09:59:48.018Z,79
2022-08-09T10:01:30.914Z,81
2022-08-09T10:02:19.620Z,81
2022-08-09T10:03:24.442Z,67
2022-08-09T10:04:38.455Z,64
2022-08-09T10:06:01.433Z,68
2022-08-09T10:07:09.651Z,72
2022-08-09T10:08:11.370Z,63
2022-08-09T10:09:21.915Z,61
2022-08-09T10:10:18.814Z,67
2022-08-09T10:11:54.150Z,54
2022-08-09T10:14:34.690Z,33
2022-08-09T10:16:08.631Z,29
2022-08-09T10:16:56.296Z,29
2022-08-09T10:17:56.158Z,39
2022-08-09T10:19:11.682Z,48
2022-08-09T10:20:26.796Z,35
2022-08-09T10:21:36.325Z,36
2022-08-09T10:22:45.797Z,37
2022-08-09T10:23:50.146Z,36
2022-08-09T10:25:11.430Z,40
2022-08-09T10:26:19.377Z,38
2022-08-09T10:27:28.584Z,31
2022-08-09T10:29:13.651Z,45
2022-08-09T10:30:29.715Z,49
2022-08-09T10:33:29.452Z,44
2022-08-09T10:34:33.376Z,33
2022-08-09T10:35:30.102Z,33
2022-08-09T10:36:45.107Z,29
2022-08-09T10:37:48.978Z,31
2022-08-09T10:38:55.091Z,42
2022-08-09T10:40:11.883Z,37
2022-08-09T10:41:21.246Z,38
2022-08-09T10:42:52.922Z,57
2022-08-09T10:43:58.978Z,45
2022-08-09T10:46:13.471Z,45
2022-08-09T10:48:12.957Z,27
2022-08-09T10:48:55.434Z,47
2022-08-09T10:49:59.783Z,46
2022-08-09T10:51:10.147Z,53
2022-08-09T10:52:30.009Z,44
2022-08-09T10:55:25.946Z,31
2022-08-09T10:56:35.069Z,37
2022-08-09T10:57:41.725Z,44
2022-08-09T10:58:44.441Z,41
2022-08-09T11:03:01.927Z,44
2022-08-09T11:03:16.633Z,53
2022-08-09T11:03:47.335Z,47
2022-08-09T11:04:45.130Z,46
2022-08-09T11:06:00.215Z,34
2022-08-09T11:13:59.705Z,38
2022-08-09T11:15:18.569Z,34
2022-08-09T11:16:33.381Z,49
2022-08-09T11:17:41.685Z,43
2022-08-09T11:18:45.015Z,46
2022-08-09T11:20:12.302Z,43
2022-08-09T11:21:00.236Z,31
2022-08-09T11:22:10.895Z,46
2022-08-09T11:23:10.083Z,44
2022-08-09T11:24:14.821Z,38
2022-08-09T11:25:21.344Z,37
2022-08-09T11:26:29.657Z,40
2022-08-09T11:28:03.310Z,45
2022-08-09T11:28:54.567Z,30
2022-08-09T11:30:05.490Z,40
2022-08-09T11:30:57.474Z,43
2022-08-09T11:32:01.844Z,45
2022-08-09T11:33:10.460Z,43
2022-08-09T11:34:18.108Z,40
2022-08-09T11:35:26.799Z,40
2022-08-09T11:36:35.806Z,48
2022-08-09T11:37:40.770Z,57
2022-08-09T11:38:44.129Z,59
2022-08-09T11:39:48.569Z,61
2022-08-09T11:41:01.039Z,78
2022-08-09T11:42:06.041Z,88
2022-08-09T11:43:10.321Z,86
2022-08-09T11:44:20.857Z,84
2022-08-09T11:45:38.069Z,89
2022-08-09T11:46:34.198Z,93
2022-08-09T11:47:48.601Z,88
2022-08-09T11:48:53.708Z,84
2022-08-09T11:50:52.630Z,78
2022-08-09T11:51:19.631Z,78
2022-08-09T11:52:49.783Z,101
2022-08-09T11:53:58.290Z,83
2022-08-09T11:54:33.682Z,99
2022-08-09T11:55:52.984Z,90
2022-08-09T11:56:47.616Z,104
2022-08-09T11:58:00.195Z,90
2022-08-09T11:58:57.825Z,72
2022-08-09T12:00:13.118Z,79
2022-08-09T12:01:15.304Z,73
2022-08-09T12:02:34.999Z,74
2022-08-09T12:03:50.762Z,75
2022-08-09T12:04:28.672Z,79
2022-08-09T12:05:37.212Z,73
2022-08-09T12:06:38.336Z,77
2022-08-09T12:07:50.553Z,69
2022-08-09T12:08:56.697Z,86
2022-08-09T12:10:02.470Z,84
2022-08-09T12:11:12.626Z,83
2022-08-09T12:12:20.117Z,85
2022-08-09T12:14:06.770Z,77
2022-08-09T12:14:41.136Z,89
2022-08-09T12:15:49.413Z,97
2022-08-09T12:16:53.368Z,104
2022-08-09T12:17:56.085Z,117
2022-08-09T12:19:00.533Z,113
2022-08-09T12:20:09.922Z,102
2022-08-09T12:21:26.543Z,91
2022-08-09T12:22:57.025Z,85
2022-08-09T12:24:06.665Z,86
2022-08-09T12:25:36.903Z,80
2022-08-09T12:26:44.728Z,89
2022-08-09T12:28:57.984Z,98
2022-08-09T12:29:29.611Z,95
2022-08-09T12:30:35.942Z,93
2022-08-09T12:31:30.711Z,110
2022-08-09T12:32:25.666Z,107
2022-08-09T12:33:35.533Z,113
2022-08-09T12:34:34.148Z,132
2022-08-09T12:35:40.337Z,132
2022-08-09T12:36:43.250Z,145
2022-08-09T12:37:53.763Z,140
2022-08-09T12:39:10.956Z,137
2022-08-09T12:40:19.925Z,124
2022-08-09T12:41:26.284Z,116
2022-08-09T12:42:37.324Z,120
2022-08-09T12:44:04.474Z,125
2022-08-09T12:45:32.118Z,118
2022-08-09T12:46:24.937Z,120
2022-08-09T12:47:37.619Z,105
2022-08-09T12:48:38.447Z,96
2022-08-09T12:49:53.234Z,90
2022-08-09T12:51:07.406Z,97
2022-08-09T12:52:21.798Z,104
2022-08-09T12:53:44.725Z,96
2022-08-09T12:54:46.394Z,94
2022-08-09T12:56:13.434Z,104
2022-08-09T12:57:08.312Z,108
2022-08-09T12:58:23.934Z,118
2022-08-09T12:59:17.705Z,127
2022-08-09T13:00:25.914Z,128
2022-08-09T13:01:30.038Z,117
2022-08-09T13:02:34.411Z,109
2022-08-09T13:03:57.331Z,115
2022-08-09T13:05:22.308Z,103
2022-08-09T13:06:34.132Z,108
2022-08-09T13:07:50.493Z,107
2022-08-09T13:08:40.634Z,102
2022-08-09T13:10:05.415Z,101
2022-08-09T13:11:29.597Z,109
2022-08-09T13:12:34.045Z,111
2022-08-09T13:14:38.129Z,98
2022-08-09T13:14:55.378Z,98
2022-08-09T13:16:06.205Z,109
2022-08-09T13:17:12.557Z,118
2022-08-09T13:18:18.028Z,129
2022-08-09T13:19:33.087Z,118
2022-08-09T13:21:03.870Z,112
2022-08-09T13:22:35.134Z,100
2022-08-09T13:24:07.454Z,88
2022-08-09T13:24:42.734Z,93
2022-08-09T13:25:39.879Z,100
2022-08-09T13:26:40.771Z,102
2022-08-09T13:27:49.040Z,112
2022-08-09T13:28:50.797Z,108
2022-08-09T13:30:49.809Z,109
2022-08-09T13:32:12.706Z,97
2022-08-09T13:32:37.038Z,101
2022-08-09T13:33:53.384Z,119
2022-08-09T13:35:11.639Z,123
2022-08-09T13:36:40.110Z,130
2022-08-09T13:37:51.577Z,132
2022-08-09T13:38:56.426Z,119
2022-08-09T13:41:21.643Z,108
2022-08-09T13:41:22.230Z,114
2022-08-09T13:42:01.204Z,106
2022-08-09T13:43:15.454Z,122
2022-08-09T13:44:16.695Z,125
2022-08-09T13:45:32.060Z,131
2022-08-09T13:46:44.909Z,122
2022-08-09T13:47:43.645Z,112
2022-08-09T13:49:05.286Z,110
2022-08-09T13:50:18.366Z,112
2022-08-09T13:51:19.533Z,113
2022-08-09T13:52:29.150Z,114
2022-08-09T13:53:36.516Z,105
2022-08-09T13:54:41.822Z,93
2022-08-09T13:55:41.673Z,93
2022-08-09T13:56:57.685Z,90
2022-08-09T13:58:02.084Z,93
2022-08-09T13:59:06.513Z,100
2022-08-09T14:00:12.409Z,107
2022-08-09T14:01:55.828Z,108
2022-08-09T14:02:25.647Z,103
2022-08-09T14:04:01.957Z,114
2022-08-09T14:04:30.937Z,123
2022-08-09T14:05:57.576Z,128
2022-08-09T14:07:03.597Z,101
2022-08-09T14:08:12.024Z,97
2022-08-09T14:09:19.652Z,100
2022-08-09T14:11:28.880Z,88
2022-08-09T14:12:34.954Z,109
2022-08-09T14:14:16.640Z,113
2022-08-09T14:14:44.165Z,111
2022-08-09T14:16:07.334Z,112
2022-08-09T14:18:19.432Z,100
2022-08-09T14:19:20.500Z,96
2022-08-09T14:20:25.932Z,89
2022-08-09T14:21:29.470Z,89
2022-08-09T14:22:33.960Z,99
2022-08-09T14:23:40.219Z,103
2022-08-09T14:24:47.000Z,98
2022-08-09T14:25:51.125Z,102
2022-08-09T14:27:20.230Z,113
2022-08-09T14:28:47.355Z,127
2022-08-09T14:30:04.580Z,112
2022-08-09T14:30:57.132Z,106
2022-08-09T14:32:06.053Z,96
2022-08-09T14:33:11.090Z,103
2022-08-09T14:34:12.556Z,105
2022-08-09T14:35:17.620Z,93
2022-08-09T14:36:24.376Z,93
2022-08-09T14:37:40.952Z,74
2022-08-09T14:38:56.317Z,86
2022-08-09T14:40:00.688Z,74
2022-08-09T14:41:23.976Z,67
2022-08-09T14:42:09.728Z,62
2022-08-09T14:43:20.332Z,51
2022-08-09T14:44:48.338Z,63
2022-08-09T14:46:40.697Z,59
2022-08-09T14:47:05.028Z,57
2022-08-09T14:48:00.133Z,55
2022-08-09T14:49:15.287Z,44
2022-08-09T14:50:34.897Z,45
2022-08-09T14:51:42.032Z,37
2022-08-09T14:52:47.897Z,39
2022-08-09T14:53:49.069Z,39
2022-08-09T14:54:53.238Z,56
2022-08-09T14:55:57.421Z,49
2022-08-09T14:57:01.809Z,55
2022-08-09T14:58:06.798Z,69
2022-08-09T14:59:14.356Z,68
2022-08-09T15:00:19.298Z,74
2022-08-09T15:01:25.178Z,80
2022-08-09T15:02:36.425Z,75
2022-08-09T15:03:41.006Z,68
2022-08-09T15:04:45.498Z,74
2022-08-09T15:05:54.726Z,85
2022-08-09T15:07:17.888Z,90
2022-08-09T15:08:33.081Z,84
2022-08-09T15:10:03.158Z,80
2022-08-09T15:11:00.103Z,74
2022-08-09T15:11:55.890Z,62
2022-08-09T15:13:02.954Z,65
2022-08-09T15:14:12.964Z,71
2022-08-09T15:15:11.964Z,81
2022-08-09T15:16:32.252Z,75
2022-08-09T15:17:41.447Z,88
2022-08-09T15:18:48.379Z,90
2022-08-09T15:20:02.561Z,77
2022-08-09T15:21:54.168Z,85
2022-08-09T15:24:16.249Z,74
2022-08-09T15:25:26.069Z,77
2022-08-09T15:26:28.437Z,63
2022-08-09T15:27:27.879Z,64
2022-08-09T15:28:35.257Z,58
2022-08-09T15:30:49.143Z,74
2022-08-09T15:31:03.641Z,68
2022-08-09T15:32:41.343Z,68
2022-08-09T15:34:15.669Z,71
2022-08-09T15:35:18.023Z,79
2022-08-09T15:36:24.359Z,81
2022-08-09T15:37:36.736Z,77
2022-08-09T15:38:40.804Z,81
2022-08-09T15:39:53.312Z,80
2022-08-09T15:41:09.453Z,87
2022-08-09T15:42:09.239Z,81
2022-08-09T15:43:40.428Z,83
2022-08-09T15:44:45.627Z,80
2022-08-09T15:46:08.339Z,84
2022-08-09T15:47:01.089Z,94
2022-08-09T15:48:20.248Z,95
2022-08-09T15:49:21.453Z,87
2022-08-09T15:50:28.840Z,80
2022-08-09T15:51:44.792Z,81
2022-08-09T15:52:54.787Z,81
2022-08-09T15:54:02.909Z,84
2022-08-09T15:54:59.799Z,91
2022-08-09T15:56:21.278Z,96
2022-08-09T15:57:44.599Z,94
2022-08-09T15:58:46.417Z,100
2022-08-09T15:59:51.515Z,101
2022-08-09T16:00:56.394Z,106
2022-08-09T16:02:04.023Z,119
2022-08-09T16:03:12.311Z,121
2022-08-09T16:04:16.491Z,133
2022-08-09T16:05:36.493Z,132
2022-08-09T16:06:40.355Z,136
2022-08-09T16:07:46.284Z,129
2022-08-09T16:09:01.074Z,126
2022-08-09T16:10:38.936Z,123
2022-08-09T16:11:32.967Z,130
2022-08-09T16:12:36.406Z,134
2022-08-09T16:14:02.364Z,116
2022-08-09T16:14:45.860Z,115
2022-08-09T16:16:04.025Z,116
2022-08-09T16:16:57.084Z,106
2022-08-09T16:18:01.791Z,91
2022-08-09T16:19:08.980Z,83
2022-08-09T16:20:16.805Z,75
2022-08-09T16:21:25.023Z,67
2022-08-09T16:22:25.659Z,59
2022-08-09T16:23:31.263Z,55
2022-08-09T16:24:36.811Z,70
2022-08-09T16:25:41.163Z,67
2022-08-09T16:26:48.622Z,56
2022-08-09T16:27:51.473Z,58
2022-08-09T16:28:54.700Z,54
2022-08-09T16:30:00.874Z,61
2022-08-09T16:31:05.536Z,60
2022-08-09T16:32:10.911Z,65
2022-08-09T16:33:15.888Z,65
2022-08-09T16:34:23.650Z,61
2022-08-09T16:35:53.543Z,69
2022-08-09T16:36:33.181Z,77
2022-08-09T16:37:54.153Z,70
2022-08-09T16:38:49.044Z,72
2022-08-09T16:39:54.596Z,73
2022-08-09T16:40:57.963Z,79
2022-08-09T16:42:04.380Z,77
2022-08-09T16:43:06.712Z,86
2022-08-09T16:44:11.268Z,84
2022-08-09T16:45:16.759Z,103
2022-08-09T16:46:27.442Z,100
2022-08-09T16:48:37.872Z,93
2022-08-09T16:48:52.914Z,106
2022-08-09T16:50:28.586Z,106
2022-08-09T16:50:59.492Z,108
2022-08-09T16:51:55.188Z,115
2022-08-09T16:53:03.531Z,104
2022-08-09T16:54:18.476Z,108
2022-08-09T16:55:15.647Z,111
2022-08-09T16:56:18.250Z,103
2022-08-09T16:57:24.015Z,104
2022-08-09T16:58:28.494Z,95
2022-08-09T16:59:34.576Z,91
2022-08-09T17:00:37.566Z,103
2022-08-09T17:01:52.799Z,94
2022-08-09T17:02:59.955Z,91
2022-08-09T17:04:05.324Z,98
2022-08-09T17:05:08.797Z,91
2022-08-09T17:06:28.661Z,99
2022-08-09T17:08:42.167Z,103
2022-08-09T17:08:58.077Z,107
2022-08-09T17:10:02.284Z,107
2022-08-09T17:11:05.549Z,112
2022-08-09T17:12:16.015Z,118
2022-08-09T17:13:20.379Z,105
2022-08-09T17:14:34.662Z,107
2022-08-09T17:15:59.524Z,101
2022-08-09T17:16:44.573Z,96
2022-08-09T17:18:00.508Z,106
2022-08-09T17:19:02.834Z,111
2022-08-09T17:20:30.680Z,125
2022-08-09T17:21:15.197Z,119
2022-08-09T17:22:31.278Z,110
2022-08-09T17:24:21.571Z,121
2022-08-09T17:24:47.456Z,117
2022-08-09T17:27:42.114Z,121
2022-08-09T17:28:45.418Z,117
2022-08-09T17:29:49.830Z,129
2022-08-09T17:31:03.781Z,127
2022-08-09T17:32:15.600Z,117
2022-08-09T17:33:21.816Z,116
2022-08-09T17:35:01.712Z,117
2022-08-09T17:35:40.960Z,123
2022-08-09T17:38:02.969Z,127
2022-08-09T17:38:52.834Z,125
2022-08-09T17:39:55.652Z,123
2022-08-09T17:41:08.369Z,126